sensor_id;sensor_type;location;lat;lon;timestamp;P1;durP1;ratioP1;P2;durP2;ratioP2
20314;SDS011;10315;50.958;13.080;2023-03-01T00:04:43;29.93;;;12.63;;
20314;SDS011;10315;50.958;13.080;2023-03-01T00:14:46;35.03;;;12.93;;
20314;SDS011;10315;50.958;13.080;2023-03-01T00:24:48;36.20;;;13.30;;
20314;SDS011;10315;50.958;13.080;2023-03-01T00:34:54;37.70;;;14.30;;
20314;SDS011;10315;50.958;13.080;2023-03-01T00:44:56;40.23;;;15.20;;
20314;SDS011;10315;50.958;13.080;2023-03-01T00:54:59;40.77;;;15.93;;
20314;SDS011;10315;50.958;13.080;2023-03-01T01:05:00;36.53;;;13.90;;
20314;SDS011;10315;50.958;13.080;2023-03-01T01:15:04;42.03;;;15.40;;
20314;SDS011;10315;50.958;13.080;2023-03-01T01:25:06;46.73;;;16.77;;
20314;SDS011;10315;50.958;13.080;2023-03-01T01:35:10;43.83;;;14.93;;
20314;SDS011;10315;50.958;13.080;2023-03-01T01:45:31;42.63;;;16.00;;
20314;SDS011;10315;50.958;13.080;2023-03-01T01:55:35;35.80;;;14.93;;
20314;SDS011;10315;50.958;13.080;2023-03-01T02:05:42;40.93;;;14.90;;
20314;SDS011;10315;50.958;13.080;2023-03-01T02:15:49;43.30;;;15.70;;
20314;SDS011;10315;50.958;13.080;2023-03-01T02:25:52;34.83;;;15.27;;
20314;SDS011;10315;50.958;13.080;2023-03-01T02:35:59;42.07;;;15.23;;
20314;SDS011;10315;50.958;13.080;2023-03-01T02:46:03;41.50;;;16.57;;
20314;SDS011;10315;50.958;13.080;2023-03-01T02:56:09;40.20;;;16.33;;
20314;SDS011;10315;50.958;13.080;2023-03-01T03:06:12;45.33;;;16.13;;
20314;SDS011;10315;50.958;13.080;2023-03-01T03:16:15;45.23;;;15.70;;
20314;SDS011;10315;50.958;13.080;2023-03-01T03:26:17;43.77;;;15.77;;
20314;SDS011;10315;50.958;13.080;2023-03-01T03:36:20;38.60;;;15.10;;
20314;SDS011;10315;50.958;13.080;2023-03-01T03:46:24;33.53;;;14.47;;
20314;SDS011;10315;50.958;13.080;2023-03-01T03:56:27;44.73;;;15.93;;
20314;SDS011;10315;50.958;13.080;2023-03-01T04:06:28;34.00;;;14.47;;
20314;SDS011;10315;50.958;13.080;2023-03-01T04:16:32;40.80;;;14.83;;
20314;SDS011;10315;50.958;13.080;2023-03-01T04:26:33;45.80;;;14.97;;
20314;SDS011;10315;50.958;13.080;2023-03-01T04:36:36;43.67;;;15.30;;
20314;SDS011;10315;50.958;13.080;2023-03-01T04:46:39;35.87;;;15.27;;
20314;SDS011;10315;50.958;13.080;2023-03-01T04:56:42;40.77;;;14.97;;
20314;SDS011;10315;50.958;13.080;2023-03-01T05:06:44;41.10;;;14.73;;
20314;SDS011;10315;50.958;13.080;2023-03-01T05:16:47;45.77;;;15.90;;
20314;SDS011;10315;50.958;13.080;2023-03-01T05:26:48;47.33;;;14.87;;
20314;SDS011;10315;50.958;13.080;2023-03-01T05:36:53;35.80;;;13.17;;
20314;SDS011;10315;50.958;13.080;2023-03-01T05:46:54;31.90;;;14.40;;
20314;SDS011;10315;50.958;13.080;2023-03-01T05:56:57;37.67;;;14.03;;
20314;SDS011;10315;50.958;13.080;2023-03-01T06:06:59;33.43;;;13.00;;
20314;SDS011;10315;50.958;13.080;2023-03-01T06:17:02;34.27;;;15.00;;
20314;SDS011;10315;50.958;13.080;2023-03-01T06:27:03;41.87;;;16.77;;
20314;SDS011;10315;50.958;13.080;2023-03-01T06:37:07;49.30;;;18.07;;
20314;SDS011;10315;50.958;13.080;2023-03-01T06:47:08;39.97;;;15.67;;
20314;SDS011;10315;50.958;13.080;2023-03-01T06:57:11;46.20;;;15.60;;
20314;SDS011;10315;50.958;13.080;2023-03-01T07:07:13;35.90;;;15.37;;
20314;SDS011;10315;50.958;13.080;2023-03-01T07:17:16;32.13;;;15.07;;
20314;SDS011;10315;50.958;13.080;2023-03-01T07:27:18;39.67;;;16.27;;
20314;SDS011;10315;50.958;13.080;2023-03-01T07:37:21;30.47;;;14.43;;
20314;SDS011;10315;50.958;13.080;2023-03-01T07:47:25;28.27;;;15.48;;
20314;SDS011;10315;50.958;13.080;2023-03-01T07:57:28;28.92;;;14.85;;
20314;SDS011;10315;50.958;13.080;2023-03-01T08:07:31;25.13;;;13.93;;
20314;SDS011;10315;50.958;13.080;2023-03-01T08:17:35;29.63;;;15.68;;
20314;SDS011;10315;50.958;13.080;2023-03-01T08:27:36;25.80;;;14.93;;
20314;SDS011;10315;50.958;13.080;2023-03-01T08:37:39;26.48;;;14.95;;
20314;SDS011;10315;50.958;13.080;2023-03-01T08:47:41;26.98;;;14.90;;
20314;SDS011;10315;50.958;13.080;2023-03-01T08:57:43;36.78;;;17.10;;
20314;SDS011;10315;50.958;13.080;2023-03-01T09:07:45;36.03;;;17.43;;
20314;SDS011;10315;50.958;13.080;2023-03-01T09:17:48;38.90;;;17.43;;
20314;SDS011;10315;50.958;13.080;2023-03-01T09:27:50;36.93;;;16.67;;
20314;SDS011;10315;50.958;13.080;2023-03-01T09:37:53;36.63;;;16.43;;
20314;SDS011;10315;50.958;13.080;2023-03-01T09:47:55;35.80;;;15.00;;
20314;SDS011;10315;50.958;13.080;2023-03-01T09:57:59;37.70;;;16.53;;
20314;SDS011;10315;50.958;13.080;2023-03-01T10:08:24;33.83;;;15.50;;
20314;SDS011;10315;50.958;13.080;2023-03-01T10:18:37;40.90;;;16.73;;
20314;SDS011;10315;50.958;13.080;2023-03-01T10:28:42;36.17;;;16.00;;
20314;SDS011;10315;50.958;13.080;2023-03-01T10:38:52;40.10;;;17.87;;
20314;SDS011;10315;50.958;13.080;2023-03-01T10:49:07;35.97;;;16.90;;
20314;SDS011;10315;50.958;13.080;2023-03-01T10:59:22;41.47;;;16.57;;
20314;SDS011;10315;50.958;13.080;2023-03-01T11:09:29;38.60;;;16.90;;
20314;SDS011;10315;50.958;13.080;2023-03-01T11:19:39;46.03;;;17.17;;
20314;SDS011;10315;50.958;13.080;2023-03-01T11:29:42;46.30;;;17.43;;
20314;SDS011;10315;50.958;13.080;2023-03-01T11:39:50;38.13;;;17.83;;
20314;SDS011;10315;50.958;13.080;2023-03-01T11:50:01;40.37;;;18.17;;
20314;SDS011;10315;50.958;13.080;2023-03-01T12:00:19;40.80;;;16.73;;
20314;SDS011;10315;50.958;13.080;2023-03-01T12:10:32;40.97;;;16.83;;
20314;SDS011;10315;50.958;13.080;2023-03-01T12:20:42;38.17;;;16.47;;
20314;SDS011;10315;50.958;13.080;2023-03-01T12:31:05;36.30;;;16.20;;
20314;SDS011;10315;50.958;13.080;2023-03-01T12:41:38;35.83;;;16.20;;
20314;SDS011;10315;50.958;13.080;2023-03-01T12:51:50;41.93;;;16.13;;
20314;SDS011;10315;50.958;13.080;2023-03-01T13:01:57;29.40;;;15.17;;
20314;SDS011;10315;50.958;13.080;2023-03-01T13:22:47;40.97;;;14.73;;
20314;SDS011;10315;50.958;13.080;2023-03-01T13:43:51;30.13;;;14.30;;
20314;SDS011;10315;50.958;13.080;2023-03-01T13:53:53;26.87;;;12.83;;
20314;SDS011;10315;50.958;13.080;2023-03-01T14:03:59;23.90;;;10.47;;
20314;SDS011;10315;50.958;13.080;2023-03-01T14:14:05;26.47;;;12.10;;
20314;SDS011;10315;50.958;13.080;2023-03-01T14:24:20;24.73;;;9.60;;
20314;SDS011;10315;50.958;13.080;2023-03-01T14:34:23;25.30;;;11.70;;
20314;SDS011;10315;50.958;13.080;2023-03-01T14:44:26;21.20;;;10.23;;
20314;SDS011;10315;50.958;13.080;2023-03-01T14:54:31;24.73;;;10.70;;
20314;SDS011;10315;50.958;13.080;2023-03-01T15:04:39;25.23;;;10.83;;
20314;SDS011;10315;50.958;13.080;2023-03-01T15:14:43;30.40;;;12.07;;
20314;SDS011;10315;50.958;13.080;2023-03-01T15:24:50;35.93;;;12.33;;
20314;SDS011;10315;50.958;13.080;2023-03-01T15:34:52;32.97;;;12.30;;
20314;SDS011;10315;50.958;13.080;2023-03-01T15:45:08;24.10;;;10.90;;
20314;SDS011;10315;50.958;13.080;2023-03-01T15:55:14;25.57;;;11.57;;
20314;SDS011;10315;50.958;13.080;2023-03-01T16:05:21;30.17;;;12.30;;
20314;SDS011;10315;50.958;13.080;2023-03-01T16:15:25;23.20;;;10.97;;
20314;SDS011;10315;50.958;13.080;2023-03-01T16:25:30;27.57;;;12.40;;
20314;SDS011;10315;50.958;13.080;2023-03-01T16:35:33;35.10;;;14.67;;
20314;SDS011;10315;50.958;13.080;2023-03-01T16:45:41;31.87;;;12.57;;
20314;SDS011;10315;50.958;13.080;2023-03-01T16:55:44;34.53;;;14.13;;
20314;SDS011;10315;50.958;13.080;2023-03-01T17:05:54;29.17;;;12.23;;
20314;SDS011;10315;50.958;13.080;2023-03-01T17:15:56;41.67;;;16.57;;
20314;SDS011;10315;50.958;13.080;2023-03-01T17:25:59;36.67;;;15.07;;
20314;SDS011;10315;50.958;13.080;2023-03-01T17:36:01;37.90;;;14.27;;
20314;SDS011;10315;50.958;13.080;2023-03-01T17:46:04;39.20;;;14.87;;
20314;SDS011;10315;50.958;13.080;2023-03-01T17:56:06;39.60;;;16.87;;
20314;SDS011;10315;50.958;13.080;2023-03-01T18:06:11;38.57;;;15.33;;
20314;SDS011;10315;50.958;13.080;2023-03-01T18:16:14;35.67;;;14.87;;
20314;SDS011;10315;50.958;13.080;2023-03-01T18:26:18;41.93;;;16.73;;
20314;SDS011;10315;50.958;13.080;2023-03-01T18:36:22;40.10;;;14.67;;
20314;SDS011;10315;50.958;13.080;2023-03-01T18:46:26;38.37;;;17.07;;
20314;SDS011;10315;50.958;13.080;2023-03-01T18:56:28;52.83;;;17.33;;
20314;SDS011;10315;50.958;13.080;2023-03-01T19:06:32;51.80;;;18.97;;
20314;SDS011;10315;50.958;13.080;2023-03-01T19:16:34;54.83;;;19.63;;
20314;SDS011;10315;50.958;13.080;2023-03-01T19:26:37;54.10;;;20.00;;
20314;SDS011;10315;50.958;13.080;2023-03-01T19:36:42;43.03;;;16.67;;
20314;SDS011;10315;50.958;13.080;2023-03-01T19:46:46;50.30;;;17.17;;
20314;SDS011;10315;50.958;13.080;2023-03-01T19:56:48;50.23;;;17.87;;
20314;SDS011;10315;50.958;13.080;2023-03-01T20:06:51;47.17;;;17.90;;
20314;SDS011;10315;50.958;13.080;2023-03-01T20:16:53;47.53;;;16.73;;
20314;SDS011;10315;50.958;13.080;2023-03-01T20:26:56;43.40;;;18.03;;
20314;SDS011;10315;50.958;13.080;2023-03-01T20:36:57;44.57;;;17.30;;
20314;SDS011;10315;50.958;13.080;2023-03-01T20:47:00;48.77;;;17.73;;
20314;SDS011;10315;50.958;13.080;2023-03-01T20:57:02;45.53;;;19.07;;
20314;SDS011;10315;50.958;13.080;2023-03-01T21:07:05;55.20;;;21.27;;
20314;SDS011;10315;50.958;13.080;2023-03-01T21:17:07;53.47;;;20.33;;
20314;SDS011;10315;50.958;13.080;2023-03-01T21:27:10;42.87;;;17.17;;
20314;SDS011;10315;50.958;13.080;2023-03-01T21:37:12;43.10;;;16.53;;
20314;SDS011;10315;50.958;13.080;2023-03-01T21:47:15;44.83;;;16.60;;
20314;SDS011;10315;50.958;13.080;2023-03-01T21:57:16;43.33;;;17.20;;
20314;SDS011;10315;50.958;13.080;2023-03-01T22:07:20;38.23;;;16.20;;
20314;SDS011;10315;50.958;13.080;2023-03-01T22:17:21;45.13;;;16.80;;
20314;SDS011;10315;50.958;13.080;2023-03-01T22:27:24;39.70;;;14.80;;
20314;SDS011;10315;50.958;13.080;2023-03-01T22:37:26;40.10;;;15.10;;
20314;SDS011;10315;50.958;13.080;2023-03-01T22:47:29;37.30;;;14.70;;
20314;SDS011;10315;50.958;13.080;2023-03-01T22:57:30;40.27;;;15.30;;
20314;SDS011;10315;50.958;13.080;2023-03-01T23:07:33;40.40;;;15.10;;
20314;SDS011;10315;50.958;13.080;2023-03-01T23:17:36;39.93;;;16.00;;
20314;SDS011;10315;50.958;13.080;2023-03-01T23:27:39;36.97;;;15.27;;
20314;SDS011;10315;50.958;13.080;2023-03-01T23:37:41;42.20;;;15.40;;
20314;SDS011;10315;50.958;13.080;2023-03-01T23:47:45;36.80;;;14.43;;
20314;SDS011;10315;50.958;13.080;2023-03-01T23:57:47;34.40;;;14.37;;
